createdAt,value
2023-03-29T00:01:42.037Z,71.70
2023-03-29T00:04:10.134Z,71.70
2023-03-29T00:06:37.790Z,71.70
2023-03-29T00:09:05.817Z,71.70
2023-03-29T00:11:32.504Z,71.70
2023-03-29T00:13:59.164Z,71.60
2023-03-29T00:16:26.011Z,71.60
2023-03-29T00:18:52.665Z,71.70
2023-03-29T00:21:19.290Z,71.70
2023-03-29T00:23:46.031Z,71.60
2023-03-29T00:26:12.712Z,71.60
2023-03-29T00:28:39.336Z,71.70
2023-03-29T00:31:13.965Z,71.60
2023-03-29T00:33:40.583Z,71.60
2023-03-29T00:36:08.758Z,71.70
2023-03-29T00:38:36.053Z,71.60
2023-03-29T00:41:04.283Z,71.70
2023-03-29T00:43:31.183Z,71.80
2023-03-29T00:45:57.903Z,71.80
2023-03-29T00:48:28.988Z,71.80
2023-03-29T00:51:09.833Z,71.80
2023-03-29T00:53:39.590Z,71.80
2023-03-29T00:56:17.541Z,71.80
2023-03-29T00:58:59.530Z,71.80
2023-03-29T01:01:42.318Z,71.80
2023-03-29T01:04:21.418Z,71.80
2023-03-29T01:07:21.984Z,71.80
2023-03-29T01:10:12.394Z,71.80
2023-03-29T01:12:48.588Z,71.80
2023-03-29T01:15:19.954Z,71.80
2023-03-29T01:17:55.429Z,71.80
2023-03-29T01:20:25.132Z,71.80
2023-03-29T01:23:26.944Z,71.80
2023-03-29T01:26:14.068Z,71.80
2023-03-29T01:28:49.505Z,71.80
2023-03-29T01:31:28.267Z,71.80
2023-03-29T01:34:27.152Z,71.80
2023-03-29T01:37:00.828Z,71.80
2023-03-29T01:39:27.555Z,71.80
2023-03-29T01:42:09.843Z,71.80
2023-03-29T01:45:09.806Z,71.80
2023-03-29T01:47:54.678Z,71.80
2023-03-29T01:50:37.820Z,71.80
2023-03-29T01:53:17.497Z,71.80
2023-03-29T01:55:49.469Z,71.80
2023-03-29T01:58:18.697Z,71.80
2023-03-29T02:00:46.249Z,71.80
2023-03-29T02:03:17.599Z,71.80
2023-03-29T02:05:45.544Z,71.80
2023-03-29T02:08:14.290Z,71.80
2023-03-29T02:10:42.445Z,71.80
2023-03-29T02:13:09.157Z,71.80
2023-03-29T02:15:35.875Z,71.80
2023-03-29T02:18:03.845Z,71.80
2023-03-29T02:20:36.940Z,71.80
2023-03-29T02:23:21.350Z,71.80
2023-03-29T02:25:50.679Z,71.80
2023-03-29T02:28:17.408Z,71.80
2023-03-29T02:31:14.933Z,71.80
2023-03-29T02:33:52.964Z,71.80
2023-03-29T02:36:28.561Z,71.80
2023-03-29T02:38:58.573Z,71.80
2023-03-29T02:41:26.375Z,71.80
2023-03-29T02:43:55.908Z,71.80
2023-03-29T02:46:23.690Z,71.80
2023-03-29T02:48:52.452Z,71.80
2023-03-29T02:51:24.038Z,71.80
2023-03-29T02:54:01.677Z,71.80
2023-03-29T02:56:28.641Z,71.80
2023-03-29T02:58:55.326Z,71.80
2023-03-29T03:01:22.915Z,71.80
2023-03-29T03:03:50.639Z,71.80
2023-03-29T03:06:18.276Z,71.80
2023-03-29T03:08:45.014Z,71.80
2023-03-29T03:11:11.633Z,71.80
2023-03-29T03:13:38.270Z,71.80
2023-03-29T03:16:05.391Z,71.80
2023-03-29T03:18:32.560Z,71.80
2023-03-29T03:21:01.721Z,71.80
2023-03-29T03:23:29.381Z,71.80
2023-03-29T03:25:56.732Z,71.80
2023-03-29T03:28:24.342Z,71.80
2023-03-29T03:30:51.330Z,71.80
2023-03-29T03:33:19.239Z,71.80
2023-03-29T03:35:46.518Z,71.80
2023-03-29T03:38:13.320Z,71.80
2023-03-29T03:40:39.988Z,71.80
2023-03-29T03:43:06.958Z,71.80
2023-03-29T03:45:33.769Z,71.80
2023-03-29T03:48:00.594Z,71.80
2023-03-29T03:50:27.438Z,71.80
2023-03-29T03:52:54.079Z,71.80
2023-03-29T03:55:21.991Z,71.80
2023-03-29T03:57:48.821Z,71.80
2023-03-29T04:00:21.458Z,71.80
2023-03-29T04:02:49.319Z,71.80
2023-03-29T04:05:17.163Z,71.80
2023-03-29T04:07:43.843Z,71.80
2023-03-29T04:10:11.152Z,71.80
2023-03-29T04:12:38.738Z,71.80
2023-03-29T04:15:06.302Z,71.80
2023-03-29T04:17:32.988Z,71.80
2023-03-29T04:20:01.275Z,71.80
2023-03-29T04:22:28.056Z,71.80
2023-03-29T04:24:54.735Z,71.80
2023-03-29T04:27:21.530Z,71.80
2023-03-29T04:29:48.864Z,71.90
2023-03-29T04:32:15.685Z,71.80
2023-03-29T04:34:42.332Z,71.80
2023-03-29T04:37:10.712Z,71.80
2023-03-29T04:39:37.827Z,71.90
2023-03-29T04:42:05.273Z,71.90
2023-03-29T04:44:34.936Z,71.90
2023-03-29T04:47:02.037Z,71.90
2023-03-29T04:49:29.062Z,71.90
2023-03-29T04:51:55.858Z,71.90
2023-03-29T04:54:22.642Z,71.90
2023-03-29T04:56:49.363Z,71.90
2023-03-29T04:59:16.049Z,71.90
2023-03-29T05:01:42.732Z,71.90
2023-03-29T05:04:12.477Z,71.90
2023-03-29T05:06:40.231Z,71.90
2023-03-29T05:09:07.410Z,71.90
2023-03-29T05:11:34.382Z,71.90
2023-03-29T05:14:03.431Z,71.90
2023-03-29T05:16:30.455Z,72.00
2023-03-29T05:18:58.772Z,72.00
2023-03-29T05:21:28.424Z,72.00
2023-03-29T05:23:55.653Z,71.90
2023-03-29T05:26:23.227Z,72.00
2023-03-29T05:28:50.703Z,72.00
2023-03-29T05:31:17.721Z,72.00
2023-03-29T05:33:44.446Z,72.00
2023-03-29T05:36:14.105Z,72.00
2023-03-29T05:38:49.935Z,72.10
2023-03-29T05:41:17.891Z,72.10
2023-03-29T05:43:44.691Z,72.00
2023-03-29T05:46:12.482Z,72.00
2023-03-29T05:48:39.342Z,72.10
2023-03-29T05:51:06.220Z,72.10
2023-03-29T05:53:33.173Z,72.10
2023-03-29T05:55:59.826Z,72.10
2023-03-29T05:58:28.366Z,72.10
2023-03-29T06:00:55.496Z,72.40
2023-03-29T06:03:27.586Z,72.40
2023-03-29T06:06:00.474Z,72.30
2023-03-29T06:08:28.453Z,72.30
2023-03-29T06:11:02.475Z,72.20
2023-03-29T06:13:31.922Z,72.20
2023-03-29T06:15:58.636Z,72.20
2023-03-29T06:18:25.901Z,72.10
2023-03-29T06:20:53.285Z,72.10
2023-03-29T06:23:20.859Z,72.10
2023-03-29T06:25:47.988Z,72.00
2023-03-29T06:28:15.377Z,72.00
2023-03-29T06:30:42.124Z,72.00
2023-03-29T06:33:09.605Z,72.00
2023-03-29T06:35:37.003Z,72.00
2023-03-29T06:38:04.765Z,72.00
2023-03-29T06:40:31.496Z,72.10
2023-03-29T06:42:59.296Z,72.10
2023-03-29T06:45:29.328Z,72.20
2023-03-29T06:47:56.557Z,72.20
2023-03-29T06:50:23.580Z,72.20
2023-03-29T06:52:50.494Z,72.10
2023-03-29T06:55:18.380Z,72.10
2023-03-29T06:57:45.114Z,72.10
2023-03-29T07:00:18.253Z,72.10
2023-03-29T07:02:46.094Z,72.10
2023-03-29T07:05:13.832Z,72.10
2023-03-29T07:08:11.298Z,72.10
2023-03-29T07:10:41.073Z,72.10
2023-03-29T07:13:11.083Z,72.10
2023-03-29T07:15:38.002Z,72.10
2023-03-29T07:18:05.400Z,72.10
2023-03-29T07:20:33.742Z,72.10
2023-03-29T07:23:00.733Z,72.10
2023-03-29T07:25:29.937Z,72.10
2023-03-29T07:27:56.681Z,72.10
2023-03-29T07:30:29.667Z,72.10
2023-03-29T07:32:59.001Z,72.10
2023-03-29T07:35:26.977Z,72.10
2023-03-29T07:37:55.535Z,72.10
2023-03-29T07:40:26.234Z,72.10
2023-03-29T07:42:54.981Z,72.10
2023-03-29T07:45:26.762Z,72.10
2023-03-29T07:47:57.895Z,72.10
2023-03-29T07:50:25.768Z,72.10
2023-03-29T07:52:53.893Z,72.10
2023-03-29T07:55:20.748Z,72.10
2023-03-29T07:57:49.432Z,72.20
2023-03-29T08:00:17.212Z,72.20
2023-03-29T08:02:47.997Z,72.10
2023-03-29T08:05:18.993Z,72.10
2023-03-29T08:07:50.418Z,72.10
2023-03-29T08:10:19.271Z,72.10
2023-03-29T08:12:47.429Z,72.20
2023-03-29T08:15:14.781Z,72.20
2023-03-29T08:17:42.190Z,72.20
2023-03-29T08:20:11.986Z,72.20
2023-03-29T08:22:39.157Z,72.30
2023-03-29T08:25:07.294Z,72.40
2023-03-29T08:27:34.940Z,72.40
2023-03-29T08:30:01.982Z,72.40
2023-03-29T08:32:28.688Z,72.40
2023-03-29T08:34:55.466Z,72.40
2023-03-29T08:37:24.500Z,72.40
2023-03-29T08:39:51.323Z,72.50
2023-03-29T08:42:38.043Z,72.30
2023-03-29T08:45:19.939Z,72.50
2023-03-29T08:47:53.469Z,72.50
2023-03-29T08:50:27.256Z,72.50
2023-03-29T08:52:58.955Z,72.50
2023-03-29T08:55:36.944Z,72.60
2023-03-29T08:58:08.079Z,72.70
2023-03-29T09:00:45.945Z,72.70
2023-03-29T09:03:23.243Z,72.80
2023-03-29T09:06:02.858Z,72.90
2023-03-29T09:08:29.877Z,72.90
2023-03-29T09:11:24.228Z,72.80
2023-03-29T09:14:25.814Z,73.00
2023-03-29T09:17:33.298Z,73.10
2023-03-29T09:20:17.415Z,73.10
2023-03-29T09:23:01.766Z,73.40
2023-03-29T09:26:05.301Z,73.60
2023-03-29T09:28:40.051Z,73.80
2023-03-29T09:31:12.387Z,73.90
2023-03-29T09:33:43.553Z,73.90
2023-03-29T09:36:10.194Z,73.80
2023-03-29T09:38:43.632Z,73.70
2023-03-29T09:41:26.466Z,73.70
2023-03-29T09:43:55.922Z,73.70
2023-03-29T09:46:36.857Z,73.40
2023-03-29T09:49:06.372Z,73.50
2023-03-29T09:51:33.860Z,73.50
2023-03-29T09:54:01.087Z,73.80
2023-03-29T09:56:28.854Z,74.00
2023-03-29T09:58:55.778Z,74.30
2023-03-29T10:01:22.535Z,74.40
2023-03-29T10:03:53.204Z,74.60
2023-03-29T10:06:23.543Z,74.70
2023-03-29T10:08:52.739Z,74.70
2023-03-29T10:11:38.997Z,74.70
2023-03-29T10:14:12.792Z,74.70
2023-03-29T10:16:46.072Z,74.80
2023-03-29T10:19:36.949Z,74.80
2023-03-29T10:22:28.406Z,74.70
2023-03-29T10:24:57.145Z,74.40
2023-03-29T10:27:28.903Z,74.30
2023-03-29T10:29:57.993Z,74.50
2023-03-29T10:32:34.756Z,74.50
2023-03-29T10:35:12.236Z,74.60
2023-03-29T10:37:50.054Z,74.50
2023-03-29T10:40:32.064Z,74.50
2023-03-29T10:43:01.176Z,74.50
2023-03-29T10:45:35.364Z,74.40
2023-03-29T10:48:04.983Z,74.50
2023-03-29T10:50:38.101Z,74.40
2023-03-29T10:53:14.848Z,74.40
2023-03-29T10:55:52.127Z,74.30
2023-03-29T10:58:41.156Z,74.30
2023-03-29T11:01:17.386Z,74.30
2023-03-29T11:04:19.166Z,74.20
2023-03-29T11:07:10.929Z,74.10
2023-03-29T11:09:52.746Z,74.10
2023-03-29T11:12:47.474Z,74.10
2023-03-29T11:15:27.180Z,74.20
2023-03-29T11:18:02.968Z,74.30
2023-03-29T11:20:45.940Z,74.50
2023-03-29T11:23:41.437Z,74.60
2023-03-29T11:26:20.557Z,74.70
2023-03-29T11:28:55.303Z,74.90
2023-03-29T11:31:30.855Z,75.10
2023-03-29T11:34:11.545Z,75.40
2023-03-29T11:36:53.782Z,75.50
2023-03-29T11:39:44.244Z,75.40
2023-03-29T11:42:23.239Z,75.70
2023-03-29T11:44:55.116Z,75.50
2023-03-29T11:47:23.663Z,75.50
2023-03-29T11:50:02.584Z,75.50
2023-03-29T11:52:34.032Z,75.50
2023-03-29T11:55:05.427Z,75.30
2023-03-29T11:57:36.403Z,75.20
2023-03-29T12:00:14.540Z,75.30
2023-03-29T12:02:52.446Z,75.00
2023-03-29T12:05:24.077Z,74.90
2023-03-29T12:07:56.125Z,74.70
2023-03-29T12:10:27.334Z,74.60
2023-03-29T12:13:06.096Z,74.60
2023-03-29T12:15:42.715Z,74.40
2023-03-29T12:18:30.424Z,74.30
2023-03-29T12:21:00.325Z,74.10
2023-03-29T12:23:32.118Z,74.10
2023-03-29T12:26:20.925Z,74.20
2023-03-29T12:28:53.731Z,74.20
2023-03-29T12:31:33.976Z,74.20
2023-03-29T12:34:14.412Z,74.20
2023-03-29T12:36:52.095Z,73.90
2023-03-29T12:39:20.902Z,74.00
2023-03-29T12:41:51.611Z,74.20
2023-03-29T12:44:22.438Z,74.20
2023-03-29T12:46:59.148Z,74.00
2023-03-29T12:49:35.807Z,74.00
2023-03-29T12:52:08.256Z,73.90
2023-03-29T12:54:34.885Z,74.20
2023-03-29T12:57:20.166Z,74.30
2023-03-29T12:59:49.545Z,74.10
2023-03-29T13:02:17.519Z,74.40
2023-03-29T13:04:52.320Z,74.40
2023-03-29T13:07:22.266Z,74.10
2023-03-29T13:10:03.141Z,74.30
2023-03-29T13:12:40.579Z,74.10
2023-03-29T13:15:19.189Z,74.00
2023-03-29T13:18:12.360Z,73.90
2023-03-29T13:21:03.453Z,74.10
2023-03-29T13:23:54.741Z,74.00
2023-03-29T13:26:43.276Z,73.80
2023-03-29T13:29:30.252Z,74.00
2023-03-29T13:32:27.239Z,74.30
2023-03-29T13:35:11.659Z,74.30
2023-03-29T13:38:00.689Z,74.30
2023-03-29T13:40:30.198Z,74.20
2023-03-29T13:43:24.667Z,74.10
2023-03-29T13:45:57.525Z,74.00
2023-03-29T13:48:37.636Z,74.50
2023-03-29T13:51:18.629Z,74.40
2023-03-29T13:53:56.194Z,74.30
2023-03-29T13:56:32.843Z,74.20
2023-03-29T13:59:11.618Z,74.10
2023-03-29T14:01:55.049Z,74.30
2023-03-29T14:04:25.564Z,73.90
2023-03-29T14:06:55.985Z,73.90
2023-03-29T14:09:35.962Z,74.00
2023-03-29T14:12:02.776Z,73.50
2023-03-29T14:14:32.688Z,74.00
2023-03-29T14:17:01.395Z,74.00
2023-03-29T14:19:37.534Z,73.50
2023-03-29T14:22:10.764Z,73.60
2023-03-29T14:24:39.908Z,73.10
2023-03-29T14:27:10.128Z,73.30
2023-03-29T14:29:36.962Z,73.60
2023-03-29T14:32:16.913Z,73.70
2023-03-29T14:34:47.433Z,73.50
2023-03-29T14:37:18.708Z,73.80
2023-03-29T14:39:45.879Z,73.40
2023-03-29T14:42:20.792Z,73.70
2023-03-29T14:44:49.029Z,73.30
2023-03-29T14:47:29.261Z,73.60
2023-03-29T14:50:00.606Z,73.60
2023-03-29T14:52:31.946Z,73.90
2023-03-29T14:55:00.842Z,73.90
2023-03-29T14:57:33.043Z,74.00
2023-03-29T15:00:26.039Z,73.90
2023-03-29T15:02:57.410Z,73.90
2023-03-29T15:05:34.634Z,73.80
2023-03-29T15:08:02.700Z,74.10
2023-03-29T15:10:32.774Z,73.70
2023-03-29T15:13:02.888Z,73.40
2023-03-29T15:15:32.454Z,73.40
2023-03-29T15:17:59.069Z,73.70
2023-03-29T15:20:33.137Z,73.70
2023-03-29T15:23:01.563Z,73.10
2023-03-29T15:25:37.652Z,73.30
2023-03-29T15:28:04.701Z,73.10
2023-03-29T15:30:38.664Z,73.50
2023-03-29T15:33:19.237Z,73.30
2023-03-29T15:35:49.926Z,73.40
2023-03-29T15:38:16.594Z,72.90
2023-03-29T15:40:43.369Z,72.90
2023-03-29T15:43:11.065Z,72.90
2023-03-29T15:45:37.803Z,72.60
2023-03-29T15:48:22.991Z,72.30
2023-03-29T15:50:50.076Z,72.20
2023-03-29T15:53:23.751Z,72.40
2023-03-29T15:55:53.482Z,72.60
2023-03-29T15:58:25.441Z,72.70
2023-03-29T16:01:19.394Z,72.50
2023-03-29T16:03:47.785Z,72.60
2023-03-29T16:06:17.285Z,72.40
2023-03-29T16:08:44.049Z,72.50
2023-03-29T16:11:11.771Z,72.70
2023-03-29T16:13:38.561Z,72.70
2023-03-29T16:16:05.870Z,72.80
2023-03-29T16:18:32.755Z,72.90
2023-03-29T16:21:09.900Z,73.00
2023-03-29T16:23:38.571Z,72.80
2023-03-29T16:26:06.465Z,72.90
2023-03-29T16:28:33.272Z,73.00
2023-03-29T16:30:59.916Z,72.90
2023-03-29T16:33:26.965Z,72.90
2023-03-29T16:35:53.611Z,73.00
2023-03-29T16:38:21.655Z,73.00
2023-03-29T16:40:48.526Z,73.00
2023-03-29T16:43:16.138Z,73.10
2023-03-29T16:45:42.885Z,73.20
2023-03-29T16:48:17.067Z,73.20
2023-03-29T16:50:50.660Z,73.10
2023-03-29T16:53:21.324Z,73.10
2023-03-29T16:55:48.202Z,73.20
2023-03-29T16:58:15.533Z,73.20
2023-03-29T17:00:43.387Z,73.20
2023-03-29T17:03:11.218Z,73.10
2023-03-29T17:05:41.478Z,73.30
2023-03-29T17:08:10.027Z,73.20
2023-03-29T17:10:40.713Z,73.10
2023-03-29T17:13:08.085Z,73.10
2023-03-29T17:15:36.632Z,73.20
2023-03-29T17:18:05.409Z,73.20
2023-03-29T17:20:32.209Z,73.20
2023-03-29T17:22:58.954Z,73.20
2023-03-29T17:25:25.671Z,73.20
2023-03-29T17:27:53.971Z,73.20
2023-03-29T17:30:20.695Z,73.20
2023-03-29T17:32:47.397Z,73.20
2023-03-29T17:35:14.196Z,73.10
2023-03-29T17:37:41.930Z,73.10
2023-03-29T17:40:10.803Z,73.10
2023-03-29T17:42:37.704Z,73.10
2023-03-29T17:45:04.975Z,73.20
2023-03-29T17:47:31.688Z,73.10
2023-03-29T17:49:58.549Z,73.10
2023-03-29T17:52:25.403Z,73.10
2023-03-29T17:54:52.145Z,73.10
2023-03-29T17:57:18.844Z,73.20
2023-03-29T17:59:45.610Z,73.10
2023-03-29T18:02:17.926Z,73.10
2023-03-29T18:04:45.241Z,73.00
2023-03-29T18:07:12.523Z,73.00
2023-03-29T18:09:39.199Z,73.00
2023-03-29T18:12:06.679Z,73.00
2023-03-29T18:14:33.620Z,72.90
2023-03-29T18:17:00.553Z,72.90
2023-03-29T18:19:27.668Z,72.90
2023-03-29T18:21:54.376Z,72.90
2023-03-29T18:24:21.264Z,72.90
2023-03-29T18:26:47.985Z,72.90
2023-03-29T18:29:14.681Z,72.90
2023-03-29T18:31:41.621Z,72.90
2023-03-29T18:34:08.610Z,72.90
2023-03-29T18:36:35.320Z,72.80
2023-03-29T18:39:05.913Z,72.80
2023-03-29T18:41:34.644Z,72.90
2023-03-29T18:44:01.535Z,73.00
2023-03-29T18:46:31.123Z,73.00
2023-03-29T18:48:59.428Z,73.00
2023-03-29T18:51:27.951Z,73.10
2023-03-29T18:53:55.874Z,73.20
2023-03-29T18:56:23.138Z,73.20
2023-03-29T18:58:49.909Z,73.20
2023-03-29T19:01:16.731Z,73.20
2023-03-29T19:03:43.868Z,73.30
2023-03-29T19:06:11.765Z,73.30
2023-03-29T19:08:39.614Z,73.40
2023-03-29T19:11:08.386Z,73.40
2023-03-29T19:13:35.873Z,73.50
2023-03-29T19:16:03.708Z,73.60
2023-03-29T19:18:30.862Z,73.60
2023-03-29T19:20:57.732Z,73.80
2023-03-29T19:23:27.129Z,73.80
2023-03-29T19:25:55.840Z,73.90
2023-03-29T19:28:23.053Z,73.90
2023-03-29T19:30:49.886Z,73.90
2023-03-29T19:33:17.041Z,73.90
2023-03-29T19:35:44.167Z,73.90
2023-03-29T19:38:11.036Z,74.00
2023-03-29T19:40:38.196Z,73.90
2023-03-29T19:43:05.062Z,74.00
2023-03-29T19:45:31.677Z,74.00
2023-03-29T19:48:02.887Z,74.00
2023-03-29T19:50:31.501Z,74.00
2023-03-29T19:52:58.404Z,74.00
2023-03-29T19:55:25.930Z,74.00
2023-03-29T19:57:52.707Z,74.00
2023-03-29T20:00:24.206Z,74.00
2023-03-29T20:02:55.579Z,74.00
2023-03-29T20:05:23.982Z,74.10
2023-03-29T20:07:50.651Z,73.90
2023-03-29T20:10:17.503Z,74.00
2023-03-29T20:12:44.195Z,73.90
2023-03-29T20:15:11.150Z,73.90
2023-03-29T20:17:40.715Z,73.80
2023-03-29T20:20:10.052Z,73.80
2023-03-29T20:22:38.086Z,73.80
2023-03-29T20:25:05.492Z,73.80
2023-03-29T20:27:32.218Z,73.90
2023-03-29T20:29:59.050Z,73.80
2023-03-29T20:32:27.742Z,73.80
2023-03-29T20:34:54.519Z,73.90
2023-03-29T20:37:22.945Z,73.90
2023-03-29T20:39:49.976Z,73.90
2023-03-29T20:42:16.630Z,74.00
2023-03-29T20:44:50.357Z,74.00
2023-03-29T20:47:18.941Z,74.00
2023-03-29T20:49:45.623Z,74.00
2023-03-29T20:52:16.878Z,74.00
2023-03-29T20:54:45.273Z,74.20
2023-03-29T20:57:15.942Z,74.10
2023-03-29T20:59:44.728Z,74.10
2023-03-29T21:02:17.334Z,74.20
2023-03-29T21:04:44.600Z,74.20
2023-03-29T21:07:11.268Z,74.10
2023-03-29T21:09:37.981Z,74.20
2023-03-29T21:12:04.803Z,74.20
2023-03-29T21:14:32.953Z,74.20
2023-03-29T21:16:59.719Z,74.20
2023-03-29T21:19:26.521Z,74.20
2023-03-29T21:21:54.848Z,74.20
2023-03-29T21:24:22.158Z,74.10
2023-03-29T21:26:49.008Z,74.10
2023-03-29T21:29:15.910Z,74.10
2023-03-29T21:31:42.800Z,74.10
2023-03-29T21:34:09.623Z,74.10
2023-03-29T21:36:36.622Z,74.10
2023-03-29T21:39:03.429Z,74.10
2023-03-29T21:41:30.535Z,74.10
2023-03-29T21:43:57.226Z,74.10
2023-03-29T21:46:24.844Z,74.00
2023-03-29T21:48:54.550Z,74.10
2023-03-29T21:51:21.350Z,74.20
2023-03-29T21:53:47.981Z,74.10
2023-03-29T21:56:15.332Z,74.00
2023-03-29T21:58:42.189Z,74.00
2023-03-29T22:01:10.450Z,74.00
2023-03-29T22:03:38.024Z,74.00
2023-03-29T22:06:10.470Z,74.00
2023-03-29T22:08:40.485Z,74.00
2023-03-29T22:11:21.253Z,74.00
2023-03-29T22:13:47.956Z,74.10
2023-03-29T22:16:18.246Z,74.00
2023-03-29T22:18:49.114Z,74.00
2023-03-29T22:21:22.719Z,74.00
2023-03-29T22:23:51.950Z,74.10
2023-03-29T22:26:30.921Z,74.10
2023-03-29T22:29:00.228Z,74.00
2023-03-29T22:31:28.376Z,74.00
2023-03-29T22:33:55.572Z,74.00
2023-03-29T22:36:27.957Z,74.00
2023-03-29T22:38:54.805Z,74.00
2023-03-29T22:41:23.673Z,73.90
2023-03-29T22:43:55.414Z,73.90
2023-03-29T22:46:23.030Z,74.00
2023-03-29T22:48:50.286Z,73.80
2023-03-29T22:51:17.430Z,73.90
2023-03-29T22:53:44.186Z,73.80
2023-03-29T22:56:10.851Z,73.80
2023-03-29T22:58:37.872Z,73.80
2023-03-29T23:01:05.870Z,73.80
2023-03-29T23:03:32.937Z,73.80
2023-03-29T23:06:02.381Z,73.80
2023-03-29T23:08:31.154Z,73.90
2023-03-29T23:10:58.035Z,73.90
2023-03-29T23:13:28.522Z,73.90
2023-03-29T23:15:58.734Z,73.90
2023-03-29T23:18:27.576Z,73.90
2023-03-29T23:20:56.401Z,73.90
2023-03-29T23:23:24.578Z,73.90
2023-03-29T23:25:52.857Z,73.80
2023-03-29T23:28:23.485Z,73.70
2023-03-29T23:31:00.499Z,73.80
2023-03-29T23:33:30.513Z,73.80
2023-03-29T23:35:57.348Z,73.70
2023-03-29T23:38:24.173Z,73.80
2023-03-29T23:40:55.732Z,73.80
2023-03-29T23:43:22.383Z,73.80
2023-03-29T23:45:56.348Z,73.80
2023-03-29T23:48:23.888Z,73.80
2023-03-29T23:50:50.614Z,73.70
2023-03-29T23:53:17.634Z,73.80
2023-03-29T23:55:44.951Z,73.80
2023-03-29T23:58:11.662Z,73.80
